createdAt,value
2023-04-23T00:01:44.725Z,14.20
2023-04-23T00:04:12.295Z,14.10
2023-04-23T00:06:39.832Z,14.20
2023-04-23T00:09:07.814Z,14.20
2023-04-23T00:11:34.591Z,14.10
2023-04-23T00:14:01.210Z,14.10
2023-04-23T00:16:27.960Z,14.10
2023-04-23T00:18:54.463Z,14.10
2023-04-23T00:21:20.989Z,14.00
2023-04-23T00:23:47.521Z,14.00
2023-04-23T00:26:14.132Z,14.10
2023-04-23T00:28:40.704Z,14.10
2023-04-23T00:31:07.689Z,14.10
2023-04-23T00:33:34.382Z,14.20
2023-04-23T00:36:00.942Z,14.20
2023-04-23T00:38:27.810Z,14.20
2023-04-23T00:40:54.419Z,14.20
2023-04-23T00:43:21.202Z,14.20
2023-04-23T00:45:48.353Z,14.20
2023-04-23T00:48:16.429Z,14.20
2023-04-23T00:50:43.269Z,14.20
2023-04-23T00:53:10.552Z,14.20
2023-04-23T00:55:37.112Z,14.10
2023-04-23T00:58:04.233Z,14.10
2023-04-23T01:00:30.787Z,14.10
2023-04-23T01:02:58.375Z,14.10
2023-04-23T01:05:25.833Z,14.10
2023-04-23T01:07:52.410Z,14.10
2023-04-23T01:10:19.232Z,14.10
2023-04-23T01:12:46.839Z,14.10
2023-04-23T01:15:13.470Z,14.10
2023-04-23T01:17:40.050Z,14.10
2023-04-23T01:20:08.361Z,14.20
2023-04-23T01:22:38.298Z,14.10
2023-04-23T01:25:05.682Z,14.10
2023-04-23T01:27:33.141Z,14.10
2023-04-23T01:30:01.410Z,14.10
2023-04-23T01:32:27.948Z,14.00
2023-04-23T01:34:55.511Z,14.00
2023-04-23T01:37:23.469Z,14.00
2023-04-23T01:39:49.979Z,14.00
2023-04-23T01:42:16.900Z,14.00
2023-04-23T01:44:44.236Z,14.00
2023-04-23T01:47:11.225Z,14.00
2023-04-23T01:49:38.004Z,13.90
2023-04-23T01:52:04.726Z,13.90
2023-04-23T01:54:31.285Z,13.90
2023-04-23T01:56:58.971Z,13.80
2023-04-23T01:59:25.976Z,13.80
2023-04-23T02:01:52.679Z,13.70
2023-04-23T02:04:20.046Z,13.70
2023-04-23T02:06:49.649Z,13.60
2023-04-23T02:09:16.687Z,13.60
2023-04-23T02:11:43.590Z,13.60
2023-04-23T02:14:10.736Z,13.70
2023-04-23T02:16:37.386Z,13.80
2023-04-23T02:19:04.564Z,13.80
2023-04-23T02:21:31.486Z,13.80
2023-04-23T02:23:57.931Z,13.80
2023-04-23T02:26:25.125Z,13.80
2023-04-23T02:28:51.807Z,13.80
2023-04-23T02:31:20.510Z,13.80
2023-04-23T02:33:47.081Z,13.80
2023-04-23T02:36:13.597Z,13.80
2023-04-23T02:38:44.795Z,13.80
2023-04-23T02:41:12.281Z,13.80
2023-04-23T02:43:38.884Z,13.80
2023-04-23T02:46:08.484Z,13.80
2023-04-23T02:48:41.194Z,13.80
2023-04-23T02:51:12.799Z,13.90
2023-04-23T02:53:39.364Z,13.80
2023-04-23T02:56:07.188Z,13.80
2023-04-23T02:58:34.545Z,13.80
2023-04-23T03:01:02.002Z,13.80
2023-04-23T03:03:32.940Z,13.80
2023-04-23T03:06:02.453Z,13.80
2023-04-23T03:08:29.038Z,13.80
2023-04-23T03:10:55.779Z,13.80
2023-04-23T03:13:23.237Z,13.80
2023-04-23T03:15:50.878Z,13.70
2023-04-23T03:18:17.754Z,13.70
2023-04-23T03:20:47.546Z,13.70
2023-04-23T03:23:14.469Z,13.60
2023-04-23T03:25:41.046Z,13.60
2023-04-23T03:28:07.577Z,13.50
2023-04-23T03:30:34.535Z,13.60
2023-04-23T03:33:02.466Z,13.50
2023-04-23T03:35:29.391Z,13.60
2023-04-23T03:37:58.374Z,13.60
2023-04-23T03:40:25.828Z,13.60
2023-04-23T03:42:57.965Z,13.60
2023-04-23T03:45:37.541Z,13.60
2023-04-23T03:48:04.360Z,13.60
2023-04-23T03:50:34.304Z,13.60
2023-04-23T03:53:11.055Z,13.60
2023-04-23T03:56:06.979Z,13.50
2023-04-23T03:58:39.167Z,13.60
2023-04-23T04:01:07.006Z,13.60
2023-04-23T04:03:34.434Z,13.60
2023-04-23T04:06:01.028Z,13.60
2023-04-23T04:08:27.566Z,13.60
2023-04-23T04:10:54.080Z,13.50
2023-04-23T04:13:20.594Z,13.50
2023-04-23T04:15:47.092Z,13.50
2023-04-23T04:18:13.657Z,13.50
2023-04-23T04:20:40.189Z,13.40
2023-04-23T04:23:06.678Z,13.40
2023-04-23T04:25:33.207Z,13.40
2023-04-23T04:28:00.449Z,13.50
2023-04-23T04:30:26.956Z,13.40
2023-04-23T04:32:53.635Z,13.40
2023-04-23T04:35:20.251Z,13.30
2023-04-23T04:37:46.777Z,13.20
2023-04-23T04:40:14.770Z,13.20
2023-04-23T04:42:42.623Z,13.20
2023-04-23T04:45:10.108Z,13.20
2023-04-23T04:47:36.625Z,13.10
2023-04-23T04:50:04.163Z,13.10
2023-04-23T04:52:31.002Z,13.10
2023-04-23T04:54:57.511Z,13.10
2023-04-23T04:57:24.235Z,13.10
2023-04-23T04:59:50.868Z,13.20
2023-04-23T05:02:17.704Z,13.20
2023-04-23T05:04:44.402Z,13.30
2023-04-23T05:07:11.150Z,13.40
2023-04-23T05:09:37.675Z,13.50
2023-04-23T05:12:07.309Z,13.50
2023-04-23T05:14:34.003Z,13.50
2023-04-23T05:17:00.736Z,13.60
2023-04-23T05:19:27.473Z,13.70
2023-04-23T05:21:54.040Z,13.70
2023-04-23T05:24:20.516Z,13.60
2023-04-23T05:26:46.974Z,13.60
2023-04-23T05:29:17.837Z,13.60
2023-04-23T05:31:44.372Z,13.60
2023-04-23T05:34:10.967Z,13.60
2023-04-23T05:36:37.514Z,13.60
2023-04-23T05:39:04.036Z,13.60
2023-04-23T05:41:30.644Z,13.70
2023-04-23T05:43:57.108Z,13.80
2023-04-23T05:46:23.667Z,13.80
2023-04-23T05:48:50.246Z,14.00
2023-04-23T05:51:17.936Z,14.00
2023-04-23T05:53:44.410Z,14.00
2023-04-23T05:56:10.927Z,14.10
2023-04-23T05:58:38.831Z,14.10
2023-04-23T06:01:05.542Z,14.10
2023-04-23T06:03:32.424Z,14.20
2023-04-23T06:05:59.298Z,14.30
2023-04-23T06:08:25.843Z,14.30
2023-04-23T06:10:52.436Z,14.30
2023-04-23T06:13:18.922Z,14.30
2023-04-23T06:15:45.538Z,14.40
2023-04-23T06:18:12.120Z,14.40
2023-04-23T06:20:38.642Z,14.50
2023-04-23T06:23:06.487Z,14.50
2023-04-23T06:25:32.981Z,14.50
2023-04-23T06:27:59.543Z,14.50
2023-04-23T06:30:29.988Z,14.60
2023-04-23T06:32:56.621Z,14.60
2023-04-23T06:35:23.161Z,14.70
2023-04-23T06:37:49.613Z,14.80
2023-04-23T06:40:16.239Z,14.80
2023-04-23T06:42:42.726Z,14.90
2023-04-23T06:45:17.020Z,15.00
2023-04-23T06:47:43.469Z,15.10
2023-04-23T06:50:10.172Z,15.20
2023-04-23T06:52:36.691Z,15.20
2023-04-23T06:55:03.616Z,15.20
2023-04-23T06:57:30.058Z,15.20
2023-04-23T06:59:56.612Z,15.20
2023-04-23T07:02:26.817Z,15.20
2023-04-23T07:04:53.372Z,15.10
2023-04-23T07:07:19.850Z,15.20
2023-04-23T07:09:46.307Z,15.20
2023-04-23T07:12:12.886Z,15.20
2023-04-23T07:14:39.462Z,15.20
2023-04-23T07:17:06.264Z,15.10
2023-04-23T07:19:32.827Z,15.20
2023-04-23T07:21:59.310Z,15.10
2023-04-23T07:24:26.790Z,15.20
2023-04-23T07:26:53.529Z,15.20
2023-04-23T07:29:20.065Z,15.30
2023-04-23T07:31:47.158Z,15.30
2023-04-23T07:34:14.279Z,15.40
2023-04-23T07:36:40.779Z,15.50
2023-04-23T07:39:07.243Z,15.50
2023-04-23T07:41:33.761Z,15.50
2023-04-23T07:44:00.878Z,15.60
2023-04-23T07:46:27.543Z,15.50
2023-04-23T07:48:54.091Z,15.60
2023-04-23T07:51:22.412Z,15.70
2023-04-23T07:53:51.149Z,15.70
2023-04-23T07:56:17.807Z,15.90
2023-04-23T07:58:44.256Z,16.00
2023-04-23T08:01:10.860Z,16.20
2023-04-23T08:03:37.477Z,16.30
2023-04-23T08:06:04.808Z,16.50
2023-04-23T08:08:31.300Z,16.80
2023-04-23T08:10:58.684Z,17.20
2023-04-23T08:13:25.235Z,17.50
2023-04-23T08:15:52.138Z,17.60
2023-04-23T08:18:18.795Z,17.70
2023-04-23T08:20:45.510Z,17.50
2023-04-23T08:23:12.070Z,17.50
2023-04-23T08:25:38.584Z,17.70
2023-04-23T08:28:05.155Z,17.80
2023-04-23T08:30:31.825Z,18.00
2023-04-23T08:32:58.454Z,18.10
2023-04-23T08:35:24.957Z,18.20
2023-04-23T08:37:51.566Z,18.30
2023-04-23T08:40:18.310Z,18.30
2023-04-23T08:43:06.507Z,18.30
2023-04-23T08:45:34.524Z,18.40
2023-04-23T08:48:02.608Z,18.70
2023-04-23T08:50:30.971Z,18.90
2023-04-23T08:52:58.307Z,19.00
2023-04-23T08:55:25.827Z,18.90
2023-04-23T08:57:52.442Z,18.90
2023-04-23T09:00:22.985Z,18.90
2023-04-23T09:02:50.533Z,18.80
2023-04-23T09:05:17.359Z,18.60
2023-04-23T09:07:44.394Z,18.60
2023-04-23T09:10:12.878Z,18.70
2023-04-23T09:12:43.562Z,18.80
2023-04-23T09:15:11.039Z,19.00
2023-04-23T09:17:43.780Z,19.10
2023-04-23T09:20:11.301Z,19.30
2023-04-23T09:22:58.090Z,19.40
2023-04-23T09:25:25.501Z,19.50
2023-04-23T09:27:53.162Z,19.50
2023-04-23T09:30:20.398Z,19.70
2023-04-23T09:32:47.565Z,20.00
2023-04-23T09:35:16.663Z,20.10
2023-04-23T09:37:48.797Z,20.10
2023-04-23T09:40:17.772Z,20.20
2023-04-23T09:42:54.215Z,20.20
2023-04-23T09:45:21.056Z,20.10
2023-04-23T09:47:55.353Z,20.10
2023-04-23T09:50:37.085Z,20.00
2023-04-23T09:53:04.708Z,19.90
2023-04-23T09:55:35.721Z,19.90
2023-04-23T09:58:04.551Z,19.90
2023-04-23T10:00:36.452Z,20.00
2023-04-23T10:03:04.282Z,20.10
2023-04-23T10:05:37.257Z,20.10
2023-04-23T10:08:08.043Z,20.10
2023-04-23T10:10:40.623Z,20.10
2023-04-23T10:13:20.212Z,20.10
2023-04-23T10:15:48.192Z,20.10
2023-04-23T10:18:15.071Z,20.10
2023-04-23T10:20:42.789Z,20.20
2023-04-23T10:23:09.879Z,20.10
2023-04-23T10:25:39.066Z,20.00
2023-04-23T10:28:08.088Z,20.00
2023-04-23T10:30:36.410Z,20.10
2023-04-23T10:33:06.083Z,20.20
2023-04-23T10:35:35.726Z,20.20
2023-04-23T10:38:03.696Z,20.10
2023-04-23T10:40:33.892Z,20.00
2023-04-23T10:43:00.963Z,20.10
2023-04-23T10:45:30.802Z,20.10
2023-04-23T10:47:59.000Z,20.10
2023-04-23T10:50:27.301Z,20.20
2023-04-23T10:52:56.858Z,20.30
2023-04-23T10:55:25.582Z,20.40
2023-04-23T10:58:01.148Z,20.50
2023-04-23T11:00:29.506Z,20.60
2023-04-23T11:02:56.419Z,20.60
2023-04-23T11:05:24.749Z,20.70
2023-04-23T11:08:18.834Z,20.70
2023-04-23T11:10:57.055Z,20.50
2023-04-23T11:13:25.159Z,20.40
2023-04-23T11:16:18.532Z,20.60
2023-04-23T11:19:03.280Z,20.70
2023-04-23T11:22:02.129Z,20.90
2023-04-23T11:24:42.639Z,21.10
2023-04-23T11:27:11.460Z,21.10
2023-04-23T11:29:40.502Z,21.10
2023-04-23T11:32:12.717Z,21.00
2023-04-23T11:34:41.026Z,20.80
2023-04-23T11:37:15.831Z,21.00
2023-04-23T11:39:44.263Z,21.40
2023-04-23T11:42:13.146Z,21.60
2023-04-23T11:44:41.157Z,21.80
2023-04-23T11:47:12.622Z,22.00
2023-04-23T11:49:41.126Z,21.90
2023-04-23T11:52:08.677Z,22.00
2023-04-23T11:54:35.606Z,22.20
2023-04-23T11:57:05.881Z,22.30
2023-04-23T11:59:32.482Z,22.40
2023-04-23T12:02:00.015Z,22.20
2023-04-23T12:04:28.844Z,22.10
2023-04-23T12:06:56.871Z,22.00
2023-04-23T12:09:26.924Z,22.10
2023-04-23T12:11:54.060Z,22.20
2023-04-23T12:14:28.530Z,22.20
2023-04-23T12:16:56.034Z,22.20
2023-04-23T12:19:27.079Z,22.30
2023-04-23T12:22:02.153Z,22.20
2023-04-23T12:24:31.241Z,22.10
2023-04-23T12:27:00.877Z,22.20
2023-04-23T12:29:30.495Z,22.40
2023-04-23T12:31:59.534Z,22.50
2023-04-23T12:34:26.120Z,22.40
2023-04-23T12:36:55.292Z,22.50
2023-04-23T12:39:33.945Z,22.50
2023-04-23T12:42:05.575Z,22.40
2023-04-23T12:44:36.274Z,22.40
2023-04-23T12:47:05.341Z,22.40
2023-04-23T12:49:32.887Z,22.30
2023-04-23T12:52:01.605Z,22.40
2023-04-23T12:54:39.976Z,22.40
2023-04-23T12:57:08.093Z,22.40
2023-04-23T12:59:34.747Z,22.50
2023-04-23T13:02:04.598Z,22.60
2023-04-23T13:04:35.568Z,22.80
2023-04-23T13:07:02.539Z,23.10
2023-04-23T13:09:29.533Z,23.10
2023-04-23T13:11:56.170Z,23.10
2023-04-23T13:14:22.731Z,23.00
2023-04-23T13:16:50.941Z,23.00
2023-04-23T13:19:17.734Z,23.10
2023-04-23T13:21:44.935Z,23.10
2023-04-23T13:24:11.967Z,23.00
2023-04-23T13:26:38.722Z,23.00
2023-04-23T13:29:05.998Z,23.00
2023-04-23T13:31:33.736Z,22.90
2023-04-23T13:34:02.770Z,22.80
2023-04-23T13:36:29.410Z,22.70
2023-04-23T13:38:55.934Z,22.70
2023-04-23T13:41:22.455Z,22.60
2023-04-23T13:43:48.922Z,22.60
2023-04-23T13:46:16.645Z,22.40
2023-04-23T13:48:43.208Z,22.30
2023-04-23T13:51:21.866Z,22.20
2023-04-23T13:53:56.178Z,22.10
2023-04-23T13:56:22.855Z,22.10
2023-04-23T13:58:51.227Z,22.10
2023-04-23T14:01:17.815Z,22.00
2023-04-23T14:03:44.720Z,22.00
2023-04-23T14:06:11.169Z,21.90
2023-04-23T14:08:38.256Z,21.60
2023-04-23T14:11:04.824Z,21.30
2023-04-23T14:13:32.725Z,21.10
2023-04-23T14:16:01.369Z,21.00
2023-04-23T14:18:30.085Z,20.90
2023-04-23T14:20:56.605Z,20.80
2023-04-23T14:23:23.092Z,20.80
2023-04-23T14:25:57.777Z,20.70
2023-04-23T14:28:29.721Z,20.50
2023-04-23T14:30:57.277Z,20.40
2023-04-23T14:33:24.095Z,20.40
2023-04-23T14:35:50.618Z,20.40
2023-04-23T14:38:17.913Z,20.30
2023-04-23T14:40:44.486Z,20.30
2023-04-23T14:43:15.650Z,20.40
2023-04-23T14:45:42.910Z,20.50
2023-04-23T14:48:09.510Z,20.60
2023-04-23T14:50:36.012Z,20.60
2023-04-23T14:53:06.905Z,20.40
2023-04-23T14:55:33.869Z,20.20
2023-04-23T14:58:00.608Z,19.90
2023-04-23T15:00:27.469Z,19.80
2023-04-23T15:02:54.141Z,19.60
2023-04-23T15:05:21.096Z,19.30
2023-04-23T15:07:47.592Z,18.90
2023-04-23T15:10:14.152Z,18.40
2023-04-23T15:12:48.438Z,17.90
2023-04-23T15:15:30.525Z,17.50
2023-04-23T15:18:03.989Z,17.30
2023-04-23T15:20:30.676Z,17.30
2023-04-23T15:22:57.348Z,17.20
2023-04-23T15:25:25.095Z,17.20
2023-04-23T15:27:57.621Z,17.10
2023-04-23T15:30:26.036Z,17.00
2023-04-23T15:32:55.228Z,16.90
2023-04-23T15:35:26.427Z,16.90
2023-04-23T15:37:54.343Z,16.90
2023-04-23T15:40:20.935Z,16.90
2023-04-23T15:42:49.849Z,17.00
2023-04-23T15:45:16.922Z,17.00
2023-04-23T15:47:43.517Z,17.00
2023-04-23T15:50:11.029Z,17.00
2023-04-23T15:52:37.890Z,17.10
2023-04-23T15:55:05.555Z,17.30
2023-04-23T15:57:32.120Z,17.20
2023-04-23T15:59:58.810Z,17.30
2023-04-23T16:02:25.573Z,17.30
2023-04-23T16:04:52.326Z,17.40
2023-04-23T16:07:18.920Z,17.30
2023-04-23T16:09:45.476Z,17.30
2023-04-23T16:12:12.822Z,17.20
2023-04-23T16:14:40.486Z,17.20
2023-04-23T16:17:07.057Z,17.20
2023-04-23T16:19:33.807Z,17.20
2023-04-23T16:22:00.366Z,17.00
2023-04-23T16:24:26.932Z,16.80
2023-04-23T16:26:53.781Z,16.50
2023-04-23T16:29:23.035Z,16.30
2023-04-23T16:31:50.131Z,16.20
2023-04-23T16:34:16.826Z,16.10
2023-04-23T16:36:43.492Z,16.10
2023-04-23T16:39:11.109Z,16.00
2023-04-23T16:41:37.922Z,16.00
2023-04-23T16:44:04.507Z,16.00
2023-04-23T16:46:31.854Z,16.00
2023-04-23T16:48:58.700Z,16.00
2023-04-23T16:51:26.322Z,16.00
2023-04-23T16:53:52.950Z,16.10
2023-04-23T16:56:20.171Z,16.40
2023-04-23T16:58:47.009Z,16.80
2023-04-23T17:01:13.535Z,17.00
2023-04-23T17:03:40.228Z,17.50
2023-04-23T17:06:12.465Z,17.60
2023-04-23T17:08:39.715Z,17.50
2023-04-23T17:11:07.084Z,17.80
2023-04-23T17:13:34.715Z,18.20
2023-04-23T17:16:02.170Z,18.20
2023-04-23T17:18:29.455Z,18.10
2023-04-23T17:20:56.089Z,18.30
2023-04-23T17:23:22.669Z,18.00
2023-04-23T17:25:49.556Z,17.60
2023-04-23T17:28:18.300Z,17.20
2023-04-23T17:30:45.632Z,17.10
2023-04-23T17:33:12.253Z,16.90
2023-04-23T17:35:38.764Z,16.80
2023-04-23T17:38:05.259Z,16.60
2023-04-23T17:40:31.840Z,16.50
2023-04-23T17:42:58.364Z,16.40
2023-04-23T17:45:24.909Z,16.20
2023-04-23T17:47:51.425Z,16.10
2023-04-23T17:50:18.105Z,16.10
2023-04-23T17:52:45.071Z,16.00
2023-04-23T17:55:12.012Z,15.80
2023-04-23T17:57:38.617Z,15.70
2023-04-23T18:00:13.383Z,15.70
2023-04-23T18:02:40.399Z,15.70
2023-04-23T18:05:11.921Z,15.60
2023-04-23T18:07:39.216Z,15.60
2023-04-23T18:10:06.615Z,15.50
2023-04-23T18:12:33.451Z,15.40
2023-04-23T18:15:00.882Z,15.40
2023-04-23T18:17:27.927Z,15.40
2023-04-23T18:19:54.764Z,15.30
2023-04-23T18:22:24.084Z,15.20
2023-04-23T18:24:50.917Z,15.10
2023-04-23T18:27:17.557Z,15.00
2023-04-23T18:29:44.731Z,14.90
2023-04-23T18:32:15.870Z,14.80
2023-04-23T18:34:47.762Z,14.70
2023-04-23T18:37:36.155Z,14.60
2023-04-23T18:40:03.752Z,14.60
2023-04-23T18:42:30.370Z,14.50
2023-04-23T18:44:56.875Z,14.50
2023-04-23T18:47:28.269Z,14.50
2023-04-23T18:50:02.466Z,14.50
2023-04-23T18:52:28.996Z,14.40
2023-04-23T18:54:55.473Z,14.40
2023-04-23T18:57:21.932Z,14.30
2023-04-23T18:59:48.416Z,14.30
2023-04-23T19:02:24.672Z,14.30
2023-04-23T19:04:55.276Z,14.30
2023-04-23T19:07:22.018Z,14.30
2023-04-23T19:09:48.482Z,14.30
2023-04-23T19:12:14.931Z,14.20
2023-04-23T19:14:41.403Z,14.20
2023-04-23T19:17:08.005Z,14.20
2023-04-23T19:19:35.423Z,14.10
2023-04-23T19:22:03.552Z,14.10
2023-04-23T19:24:32.015Z,14.00
2023-04-23T19:26:58.493Z,14.00
2023-04-23T19:29:25.220Z,13.90
2023-04-23T19:31:51.938Z,13.90
2023-04-23T19:34:19.171Z,13.90
2023-04-23T19:36:45.707Z,13.80
2023-04-23T19:39:12.629Z,13.80
2023-04-23T19:41:39.139Z,13.80
2023-04-23T19:44:05.655Z,13.80
2023-04-23T19:46:32.151Z,13.80
2023-04-23T19:48:59.456Z,13.70
2023-04-23T19:51:32.342Z,13.70
2023-04-23T19:53:58.963Z,13.70
2023-04-23T19:56:25.489Z,13.70
2023-04-23T19:58:52.190Z,13.70
2023-04-23T20:01:19.331Z,13.60
2023-04-23T20:03:48.026Z,13.60
2023-04-23T20:06:14.762Z,13.60
2023-04-23T20:09:03.812Z,13.60
2023-04-23T20:11:30.575Z,13.60
2023-04-23T20:13:57.091Z,13.50
2023-04-23T20:16:24.114Z,13.50
2023-04-23T20:18:50.726Z,13.40
2023-04-23T20:21:17.349Z,13.40
2023-04-23T20:23:43.865Z,13.40
2023-04-23T20:26:10.618Z,13.30
2023-04-23T20:28:37.278Z,13.30
2023-04-23T20:31:04.159Z,13.30
2023-04-23T20:33:30.946Z,13.30
2023-04-23T20:35:58.784Z,13.30
2023-04-23T20:38:30.568Z,13.30
2023-04-23T20:41:02.392Z,13.20
2023-04-23T20:43:29.622Z,13.20
2023-04-23T20:45:56.667Z,13.20
2023-04-23T20:48:25.331Z,13.20
2023-04-23T20:50:52.533Z,13.20
2023-04-23T20:53:19.087Z,13.20
2023-04-23T20:55:45.739Z,13.10
2023-04-23T20:58:12.259Z,13.10
2023-04-23T21:00:38.834Z,13.00
2023-04-23T21:03:06.018Z,13.00
2023-04-23T21:05:32.693Z,13.00
2023-04-23T21:07:59.271Z,13.00
2023-04-23T21:10:25.931Z,13.00
2023-04-23T21:12:52.706Z,12.90
2023-04-23T21:15:19.260Z,12.90
2023-04-23T21:17:46.235Z,12.80
2023-04-23T21:20:13.456Z,12.80
2023-04-23T21:22:39.971Z,12.80
2023-04-23T21:25:06.786Z,12.80
2023-04-23T21:27:33.777Z,12.80
2023-04-23T21:30:05.875Z,12.80
2023-04-23T21:32:32.734Z,12.80
2023-04-23T21:34:59.326Z,12.70
2023-04-23T21:37:25.806Z,12.70
2023-04-23T21:39:52.351Z,12.70
2023-04-23T21:42:18.911Z,12.60
2023-04-23T21:44:45.657Z,12.60
2023-04-23T21:47:12.331Z,12.60
2023-04-23T21:49:38.901Z,12.50
2023-04-23T21:52:06.532Z,12.50
2023-04-23T21:54:33.019Z,12.40
2023-04-23T21:56:59.563Z,12.40
2023-04-23T21:59:26.079Z,12.40
2023-04-23T22:01:52.629Z,12.40
2023-04-23T22:04:20.372Z,12.40
2023-04-23T22:06:47.056Z,12.40
2023-04-23T22:09:14.100Z,12.40
2023-04-23T22:11:44.212Z,12.30
2023-04-23T22:14:15.549Z,12.30
2023-04-23T22:16:42.126Z,12.30
2023-04-23T22:19:08.682Z,12.30
2023-04-23T22:21:35.152Z,12.30
2023-04-23T22:24:03.617Z,12.30
2023-04-23T22:26:30.256Z,12.30
2023-04-23T22:28:56.820Z,12.30
2023-04-23T22:31:23.339Z,12.30
2023-04-23T22:33:49.875Z,12.40
2023-04-23T22:36:16.969Z,12.40
2023-04-23T22:38:43.472Z,12.40
2023-04-23T22:41:10.051Z,12.40
2023-04-23T22:43:36.536Z,12.40
2023-04-23T22:46:03.195Z,12.50
2023-04-23T22:48:30.786Z,12.50
2023-04-23T22:50:57.569Z,12.50
2023-04-23T22:53:23.997Z,12.50
2023-04-23T22:55:50.708Z,12.50
2023-04-23T22:58:17.212Z,12.50
2023-04-23T23:00:43.682Z,12.50
2023-04-23T23:03:10.255Z,12.50
2023-04-23T23:05:36.831Z,12.60
2023-04-23T23:08:03.363Z,12.60
2023-04-23T23:10:29.954Z,12.60
2023-04-23T23:12:56.434Z,12.60
2023-04-23T23:15:22.923Z,12.60
2023-04-23T23:17:49.461Z,12.60
2023-04-23T23:20:16.349Z,12.60
2023-04-23T23:22:43.287Z,12.60
2023-04-23T23:25:09.822Z,12.60
2023-04-23T23:27:36.406Z,12.50
2023-04-23T23:30:05.848Z,12.50
2023-04-23T23:32:33.245Z,12.50
2023-04-23T23:35:00.378Z,12.50
2023-04-23T23:37:26.957Z,12.50
2023-04-23T23:39:53.424Z,12.50
2023-04-23T23:42:19.902Z,12.50
2023-04-23T23:44:46.387Z,12.60
2023-04-23T23:47:13.125Z,12.60
2023-04-23T23:49:40.512Z,12.60
2023-04-23T23:52:07.359Z,12.70
2023-04-23T23:54:33.818Z,12.70
2023-04-23T23:57:01.368Z,12.60
2023-04-23T23:59:27.950Z,12.60
